Time;durP1;ratioP1;P1;durP2;ratioP2;P2;SDS_P1;SDS_P2;PMS_P1;PMS_P2;Temp;Humidity;BMP_temperature;BMP_pressure;BME280_temperature;BME280_humidity;BME280_pressure;Samples;Min_cycle;Max_cycle;Signal;HPM_P1;HPM_P2
2022/04/18 00:00:33;;;;;;;4.25;0.90;;;;;;;3.01;71.21;94432.69;5115211;27;20485;-70
2022/04/18 00:03:03;;;;;;;1.77;1.02;;;;;;;2.88;71.05;94417.19;5133311;27;20038;-71
2022/04/18 00:05:32;;;;;;;1.48;0.80;;;;;;;2.93;71.84;94429.75;5133800;27;20560;-70
2022/04/18 00:07:57;;;;;;;1.92;1.17;;;;;;;2.90;70.23;94419.66;5115142;27;20026;-70
2022/04/18 00:10:22;;;;;;;1.80;1.00;;;;;;;2.90;70.42;94412.78;5132179;27;20027;-71
2022/04/18 00:12:48;;;;;;;1.75;0.98;;;;;;;2.95;70.81;94416.81;5114726;27;20019;-71
2022/04/18 00:15:13;;;;;;;2.00;0.85;;;;;;;2.92;70.27;94420.38;5115040;27;20087;-71
2022/04/18 00:17:39;;;;;;;2.70;1.08;;;;;;;2.99;70.53;94421.69;5131777;27;20027;-70
2022/04/18 00:20:05;;;;;;;2.20;1.10;;;;;;;2.92;68.94;94407.56;5131865;27;20061;-70
2022/04/18 00:22:30;;;;;;;1.65;1.05;;;;;;;2.95;68.86;94417.63;5131637;27;20039;-70
2022/04/18 00:24:56;;;;;;;3.05;1.40;;;;;;;2.92;70.73;94410.13;5131790;27;20038;-71
2022/04/18 00:27:21;;;;;;;2.10;1.20;;;;;;;2.95;72.03;94414.25;5131555;27;20100;-70
2022/04/18 00:29:50;;;;;;;2.35;1.35;;;;;;;2.94;71.87;94407.47;5131700;27;20094;-70
2022/04/18 00:32:17;;;;;;;2.15;1.40;;;;;;;2.97;71.70;94412.41;5114933;27;20121;-70
2022/04/18 00:34:43;;;;;;;2.15;1.20;;;;;;;2.96;71.97;94398.78;5110951;28;20036;-70
2022/04/18 00:37:08;;;;;;;1.63;1.10;;;;;;;2.99;71.54;94400.34;5093940;28;20070;-70
2022/04/18 00:39:33;;;;;;;2.63;1.38;;;;;;;2.94;71.54;94410.84;5110872;28;20084;-70
2022/04/18 00:41:59;;;;;;;2.03;1.30;;;;;;;2.97;71.54;94413.25;5093673;28;20031;-71
2022/04/18 00:44:24;;;;;;;1.85;1.10;;;;;;;2.76;72.37;94391.41;5110849;28;20044;-70
2022/04/18 00:46:50;;;;;;;2.00;1.08;;;;;;;2.87;71.35;94402.72;5111795;28;20027;-71
2022/04/18 00:49:15;;;;;;;2.25;1.30;;;;;;;2.94;70.78;94405.72;5093720;28;20497;-70
2022/04/18 00:51:41;;;;;;;1.85;1.08;;;;;;;2.94;69.89;94398.03;5111764;28;20023;-71
2022/04/18 00:54:06;;;;;;;1.70;1.08;;;;;;;2.85;70.65;94401.16;5110641;28;20031;-71
2022/04/18 00:56:32;;;;;;;1.95;1.20;;;;;;;2.76;67.51;94396.53;5110507;28;20031;-70
2022/04/18 00:58:57;;;;;;;1.58;1.05;;;;;;;2.84;67.95;94394.34;5110541;28;20035;-71
2022/04/18 01:01:23;;;;;;;1.60;1.00;;;;;;;2.93;68.20;94400.72;5093522;28;20035;-70
2022/04/18 01:03:49;;;;;;;1.65;1.10;;;;;;;2.95;69.79;94397.09;5110385;28;20035;-70
2022/04/18 01:06:15;;;;;;;1.42;0.90;;;;;;;2.91;68.06;94387.94;5093368;28;20413;-70
2022/04/18 01:08:40;;;;;;;1.88;1.30;;;;;;;2.91;69.61;94388.78;5110588;27;20520;-70
2022/04/18 01:11:06;;;;;;;3.05;1.70;;;;;;;2.97;70.71;94389.31;5109979;28;20055;-70
2022/04/18 01:13:47;;;;;;;2.50;1.52;;;;;;;2.92;71.59;94389.59;5111372;28;20043;-70
2022/04/18 01:16:13;;;;;;;3.30;1.85;;;;;;;2.91;71.53;94390.50;5093826;28;20023;-70
2022/04/18 01:18:38;;;;;;;3.20;1.50;;;;;;;2.92;71.63;94392.16;5111490;28;20094;-70
2022/04/18 01:21:08;;;;;;;2.72;1.48;;;;;;;2.92;71.58;94381.91;5110135;28;20019;-70
2022/04/18 01:23:33;;;;;;;2.05;1.30;;;;;;;2.94;71.56;94385.19;5110191;28;20027;-71
2022/04/18 01:29:01;;;;;;;1.90;1.20;;;;;;;3.02;72.13;94380.44;5110370;28;20043;-70
2022/04/18 01:31:31;;;;;;;2.08;1.30;;;;;;;2.89;71.65;94374.38;5111349;28;20027;-70
2022/04/18 01:33:57;;;;;;;2.00;1.20;;;;;;;2.88;71.93;94373.56;5093152;28;20036;-70
2022/04/18 01:36:23;;;;;;;4.28;1.30;;;;;;;2.87;73.39;94376.19;5109801;28;20034;-70
2022/04/18 01:38:49;;;;;;;1.80;1.13;;;;;;;2.91;72.67;94370.81;5111290;28;20028;-70
2022/04/18 01:41:14;;;;;;;2.55;1.27;;;;;;;2.90;72.14;94376.06;5093041;28;20513;-70
2022/04/18 01:43:40;;;;;;;2.20;1.20;;;;;;;2.85;72.94;94347.28;5093032;28;20507;-70
2022/04/18 01:46:05;;;;;;;1.67;1.00;;;;;;;2.89;72.13;94358.97;5109814;28;20039;-71
2022/04/18 01:48:31;;;;;;;1.85;1.20;;;;;;;2.88;72.03;94362.47;5111169;28;20024;-70
2022/04/18 01:50:56;;;;;;;1.92;1.20;;;;;;;2.88;72.29;94352.22;5111124;28;20546;-70
2022/04/18 01:53:22;;;;;;;2.10;1.20;;;;;;;2.88;72.12;94344.53;5111048;28;20470;-70
2022/04/18 01:55:48;;;;;;;1.83;1.30;;;;;;;2.91;70.95;94346.91;5093040;28;20103;-70
2022/04/18 01:58:13;;;;;;;2.55;1.30;;;;;;;2.94;70.79;94349.28;5109783;28;20397;-71
2022/04/18 02:00:39;;;;;;;1.70;1.00;;;;;;;2.97;69.26;94336.25;5092822;28;20485;-70
2022/04/18 02:03:05;;;;;;;1.50;1.00;;;;;;;2.94;68.78;94338.19;5092928;28;20050;-70
2022/04/18 02:05:30;;;;;;;1.42;0.93;;;;;;;2.93;69.80;94337.38;5110029;28;20036;-70
2022/04/18 02:07:55;;;;;;;1.95;1.00;;;;;;;2.92;69.81;94333.13;5110781;28;20032;-70
2022/04/18 02:10:21;;;;;;;1.98;1.20;;;;;;;2.96;70.67;94341.50;5092996;28;20039;-70
2022/04/18 02:12:46;;;;;;;1.67;1.02;;;;;;;2.93;68.88;94334.00;5075767;28;20034;-71
2022/04/18 02:15:12;;;;;;;1.65;1.20;;;;;;;2.67;67.97;94313.28;5111369;28;20031;-70
2022/04/18 02:17:37;;;;;;;1.80;1.10;;;;;;;2.82;69.35;94320.06;5109707;28;20034;-71
2022/04/18 02:20:03;;;;;;;1.45;0.90;;;;;;;2.88;69.18;94326.56;5092820;28;20106;-71
2022/04/18 02:22:30;;;;;;;2.05;1.13;;;;;;;2.91;68.97;94326.38;5110736;28;20103;-70
2022/04/18 02:24:57;;;;;;;1.90;1.27;;;;;;;2.90;70.11;94322.97;5112553;28;20031;-70
2022/04/18 02:27:23;;;;;;;1.88;1.10;;;;;;;2.93;68.87;94323.72;5114561;28;20027;-71
2022/04/18 02:29:48;;;;;;;2.22;1.25;;;;;;;2.91;68.43;94322.06;5113312;28;20031;-71
2022/04/18 02:34:58;;;;;;;4.70;4.20;;;;;;;2.86;68.33;94323.25;5113613;28;20116;-71
2022/04/18 02:37:23;;;;;;;10.77;9.68;;;;;;;2.91;68.90;94323.81;5129139;27;20500;-70
2022/04/18 02:39:48;;;;;;;4.25;3.20;;;;;;;2.89;69.96;94311.06;5133167;27;20042;-70
2022/04/18 02:42:14;;;;;;;12.43;7.75;;;;;;;2.82;69.91;94307.22;5134868;27;20026;-71
2022/04/18 02:44:42;;;;;;;168.23;55.60;;;;;;;2.80;69.85;94311.63;5135179;27;20026;-70
2022/04/18 02:47:07;;;;;;;100.40;41.35;;;;;;;2.77;70.10;94308.44;5133455;27;20503;-70
2022/04/18 02:49:32;;;;;;;44.67;20.65;;;;;;;2.75;70.32;94300.00;5135139;27;20032;-70
2022/04/18 02:51:58;;;;;;;17.75;11.23;;;;;;;2.75;69.59;94300.00;5134674;27;20038;-71
2022/04/18 02:54:23;;;;;;;26.45;18.35;;;;;;;2.71;70.64;94294.22;5133518;27;20027;-70
2022/04/18 02:56:49;;;;;;;22.02;16.42;;;;;;;2.75;70.46;94305.13;5134556;27;20026;-70
2022/04/18 02:59:14;;;;;;;12.60;9.65;;;;;;;2.82;70.04;94302.09;5134552;27;20038;-70
2022/04/18 03:01:40;;;;;;;29.55;14.00;;;;;;;2.82;69.56;94306.41;5116187;27;20026;-71
2022/04/18 03:04:05;;;;;;;28.95;13.48;;;;;;;2.79;69.16;94301.47;5133310;27;20035;-70
2022/04/18 03:06:30;;;;;;;47.72;21.38;;;;;;;2.72;71.03;94295.03;5134329;27;20023;-71
2022/04/18 03:08:56;;;;;;;18.63;9.15;;;;;;;2.75;68.53;94300.00;5116077;27;20042;-70
2022/04/18 03:11:21;;;;;;;85.82;42.28;;;;;;;2.77;68.44;94300.72;5133093;27;20050;-70
2022/04/18 03:13:47;;;;;;;33.70;21.42;;;;;;;2.78;69.12;94305.75;5134178;27;20027;-70
2022/04/18 03:16:13;;;;;;;29.77;22.02;;;;;;;2.78;69.86;94305.75;5133021;27;20105;-70
2022/04/18 03:18:38;;;;;;;13.95;11.07;;;;;;;2.81;69.40;94305.56;5115925;27;20042;-71
2022/04/18 03:21:04;;;;;;;4.00;3.00;;;;;;;2.78;68.07;94292.94;5132864;27;20023;-70
2022/04/18 03:23:30;;;;;;;3.40;2.25;;;;;;;2.80;68.50;94300.53;5132722;27;20035;-71
2022/04/18 03:25:56;;;;;;;2.00;1.27;;;;;;;2.68;67.73;94274.72;5115705;27;20050;-70
2022/04/18 03:28:22;;;;;;;2.22;0.90;;;;;;;2.78;67.95;94294.66;5132606;27;20491;-70
2022/04/18 03:30:47;;;;;;;1.42;0.80;;;;;;;2.71;67.30;94295.97;5134034;27;20019;-70
2022/04/18 03:33:13;;;;;;;1.33;0.85;;;;;;;2.67;67.41;94303.84;5132650;27;20030;-70
2022/04/18 03:39:50;;;;;;;94.55;37.20;;;;;;;2.74;68.16;94299.16;5115446;27;20474;-70
2022/04/18 03:41:08;;;;;;;238.57;79.80;;;;;;;2.66;70.27;94291.94;5133747;27;20108;-70
2022/04/18 03:43:35;;;;;;;127.50;51.95;;;;;;;2.67;70.86;94283.34;5132549;27;21829;-71
2022/04/18 03:46:01;;;;;;;31.10;14.77;;;;;;;2.77;70.82;94293.84;5132376;27;20095;-71
2022/04/18 03:48:26;;;;;;;11.98;5.43;;;;;;;2.76;70.83;94288.81;5132511;27;20481;-70
2022/04/18 03:50:52;;;;;;;5.65;3.30;;;;;;;2.81;71.16;94291.91;5133657;27;20026;-70
2022/04/18 03:53:17;;;;;;;3.67;2.38;;;;;;;2.79;70.88;94279.19;5133417;27;20109;-71
2022/04/18 03:55:43;;;;;;;3.38;1.95;;;;;;;2.88;71.17;94295.78;5132351;27;20473;-70
2022/04/18 03:58:08;;;;;;;1.63;1.08;;;;;;;2.89;71.69;94297.41;5132092;27;20031;-71
2022/04/18 04:00:35;;;;;;;2.42;1.60;;;;;;;2.84;71.49;94300.28;5132432;27;20091;-71
2022/04/18 04:03:00;;;;;;;3.75;2.67;;;;;;;2.85;70.45;94307.03;5132105;27;20047;-70
2022/04/18 04:05:26;;;;;;;3.28;2.38;;;;;;;2.76;70.86;94312.75;5133782;27;20059;-70
2022/04/18 04:07:51;;;;;;;5.38;3.00;;;;;;;2.78;71.59;94312.63;5131882;27;20038;-70
2022/04/18 04:10:16;;;;;;;3.63;2.30;;;;;;;2.78;71.64;94302.38;5132228;27;20034;-71
2022/04/18 04:12:42;;;;;;;2.20;1.58;;;;;;;2.89;71.87;94317.94;5114699;27;20038;-70
2022/04/18 04:15:08;;;;;;;1.80;1.10;;;;;;;2.86;71.66;94311.25;5114929;27;20030;-71
2022/04/18 04:17:33;;;;;;;2.30;1.42;;;;;;;2.63;72.53;94307.50;5131802;27;20035;-70
2022/04/18 04:19:59;;;;;;;2.05;1.25;;;;;;;2.63;71.24;94306.69;5114621;27;20054;-71
2022/04/18 04:22:24;;;;;;;3.38;2.25;;;;;;;2.66;71.52;94311.63;5132928;27;20019;-70
2022/04/18 04:24:50;;;;;;;2.40;1.48;;;;;;;2.69;71.91;94307.13;5133244;27;20031;-70
2022/04/18 04:27:15;;;;;;;2.10;1.50;;;;;;;2.63;72.26;94307.50;5131525;27;20027;-70
2022/04/18 04:29:40;;;;;;;1.90;1.10;;;;;;;2.60;72.40;94305.13;5133101;27;20031;-70
2022/04/18 04:32:06;;;;;;;2.20;1.30;;;;;;;2.56;72.68;94308.78;5114382;27;20039;-70
2022/04/18 04:34:32;;;;;;;3.75;1.80;;;;;;;2.58;72.87;94308.69;5114732;27;20030;-71
2022/04/18 04:36:57;;;;;;;4.40;2.10;;;;;;;2.68;72.82;94323.44;5111974;27;20048;-71
2022/04/18 04:39:23;;;;;;;4.47;2.00;;;;;;;2.67;73.79;94314.13;5110969;28;20042;-70
2022/04/18 04:41:48;;;;;;;5.80;3.50;;;;;;;2.79;73.52;94327.13;5110758;28;20024;-70
2022/04/18 04:44:13;;;;;;;7.85;3.78;;;;;;;2.81;73.17;94325.25;5110897;28;20031;-70
2022/04/18 04:46:39;;;;;;;6.22;3.50;;;;;;;2.86;72.97;94324.06;5110243;28;20473;-70
2022/04/18 04:49:05;;;;;;;6.07;2.92;;;;;;;2.92;71.38;94328.00;5112037;28;20505;-71
2022/04/18 04:51:30;;;;;;;3.55;2.40;;;;;;;2.88;68.80;94319.69;5093778;28;20027;-70
2022/04/18 04:53:56;;;;;;;3.72;2.50;;;;;;;2.97;68.99;94326.00;5111804;28;20035;-70
2022/04/18 04:56:23;;;;;;;5.93;2.83;;;;;;;3.02;70.84;94325.72;5110586;28;20030;-71
2022/04/18 04:58:49;;;;;;;3.92;2.78;;;;;;;3.08;70.31;94318.47;5111676;28;20059;-71
2022/04/18 05:01:15;;;;;;;3.80;2.70;;;;;;;3.13;69.64;94313.88;5093624;28;20078;-70
2022/04/18 05:03:41;;;;;;;3.20;2.10;;;;;;;3.20;68.10;94323.75;5110475;28;20486;-70
2022/04/18 05:06:07;;;;;;;3.10;2.10;;;;;;;3.26;67.43;94320.81;5111496;28;20110;-70
2022/04/18 05:08:32;;;;;;;3.05;1.92;;;;;;;3.31;67.50;94326.47;5093498;28;20076;-70
2022/04/18 05:11:00;;;;;;;2.60;1.95;;;;;;;3.35;66.57;94321.06;5111543;28;20025;-70
2022/04/18 05:13:26;;;;;;;2.28;1.58;;;;;;;3.40;66.70;94319.94;5110339;28;20027;-71
2022/04/18 05:15:52;;;;;;;3.40;2.05;;;;;;;3.41;67.50;94317.28;5093323;28;20555;-71
2022/04/18 05:18:17;;;;;;;2.53;1.90;;;;;;;3.46;66.50;94319.59;5111370;28;20040;-70
2022/04/18 05:20:44;;;;;;;3.55;2.20;;;;;;;3.53;65.65;94323.41;5093364;28;20024;-70
2022/04/18 05:23:11;;;;;;;6.00;3.33;;;;;;;3.56;64.91;94328.34;5110168;28;20024;-71
2022/04/18 05:25:37;;;;;;;2.75;2.00;;;;;;;3.57;65.33;94325.69;5111841;28;20140;-71
2022/04/18 05:28:03;;;;;;;3.22;2.08;;;;;;;3.62;65.87;94314.28;5109991;28;20141;-71
2022/04/18 05:30:28;;;;;;;3.42;2.70;;;;;;;3.65;66.23;94321.78;5110201;28;20032;-71
2022/04/18 05:32:54;;;;;;;3.63;2.30;;;;;;;3.65;66.00;94325.22;5109841;28;20084;-71
2022/04/18 05:35:20;;;;;;;4.07;2.60;;;;;;;3.69;66.57;94325.84;5111727;28;20498;-70
2022/04/18 05:37:46;;;;;;;3.95;2.78;;;;;;;3.65;66.89;94327.78;5125673;27;20439;-71
2022/04/18 05:40:12;;;;;;;3.55;2.38;;;;;;;3.75;66.18;94322.88;5124916;28;20405;-70
2022/04/18 05:42:37;;;;;;;3.90;2.67;;;;;;;3.77;64.91;94326.16;5129559;28;20023;-70
2022/04/18 05:45:03;;;;;;;5.60;3.28;;;;;;;3.78;64.45;94328.63;5112558;28;20520;-70
2022/04/18 05:47:29;;;;;;;65.30;34.20;;;;;;;3.71;63.20;94311.16;5128777;27;20027;-70
2022/04/18 05:49:54;;;;;;;72.82;36.33;;;;;;;3.83;62.40;94323.19;5131434;27;20031;-70
2022/04/18 05:52:19;;;;;;;28.15;15.10;;;;;;;3.86;62.12;94329.91;5128436;27;20076;-71
2022/04/18 05:54:45;;;;;;;50.60;27.90;;;;;;;3.85;61.68;94331.66;5130108;27;20047;-70
2022/04/18 05:57:11;;;;;;;12.85;7.47;;;;;;;3.87;62.46;94332.34;5126544;27;20031;-70
2022/04/18 05:59:36;;;;;;;21.58;12.10;;;;;;;3.89;66.00;94345.94;5129228;27;20035;-70
2022/04/18 06:02:02;;;;;;;58.25;30.02;;;;;;;3.88;64.34;94334.00;5120712;27;20087;-70
2022/04/18 06:04:27;;;;;;;65.88;34.97;;;;;;;3.94;62.91;94343.91;5128128;27;20471;-70
2022/04/18 06:06:53;;;;;;;85.65;42.17;;;;;;;3.96;62.39;94341.25;5130433;27;20023;-71
2022/04/18 06:09:18;;;;;;;63.35;32.78;;;;;;;4.00;62.01;94337.53;5129290;27;20031;-71
2022/04/18 06:11:44;;;;;;;41.47;20.92;;;;;;;3.96;62.21;94339.50;5133771;27;20030;-71
2022/04/18 06:14:09;;;;;;;69.38;34.47;;;;;;;3.99;63.54;94338.47;5107715;27;20031;-71
2022/04/18 06:16:35;;;;;;;17.23;9.13;;;;;;;3.93;61.20;94326.84;5131704;27;20026;-70
2022/04/18 06:19:00;;;;;;;5.43;3.13;;;;;;;3.97;61.76;94340.31;5134835;27;20035;-70
2022/04/18 06:21:26;;;;;;;13.20;7.30;;;;;;;3.95;62.27;94342.97;5133794;27;20023;-71
2022/04/18 06:23:51;;;;;;;13.77;7.40;;;;;;;3.87;61.55;94326.38;5123715;27;20085;-70
2022/04/18 06:26:17;;;;;;;24.02;12.52;;;;;;;3.91;59.85;94338.97;5127513;27;22064;-70
2022/04/18 06:28:42;;;;;;;39.03;19.27;;;;;;;3.96;60.28;94341.25;5112940;28;20039;-70
2022/04/18 06:31:07;;;;;;;50.92;25.65;;;;;;;3.94;60.75;94336.19;5121735;27;20486;-71
2022/04/18 06:33:34;;;;;;;41.33;21.20;;;;;;;3.93;60.11;94331.97;5114870;27;20401;-70
2022/04/18 06:36:01;;;;;;;20.38;11.32;;;;;;;4.01;60.22;94340.03;5117233;27;20071;-71
2022/04/18 06:38:28;;;;;;;6.63;4.45;;;;;;;4.09;61.11;94342.06;5131842;27;20122;-70
2022/04/18 06:40:54;;;;;;;15.68;8.15;;;;;;;4.08;61.72;94343.00;5126318;27;20051;-71
2022/04/18 06:43:20;;;;;;;7.43;4.60;;;;;;;4.17;60.10;94347.53;5127140;27;20465;-70
2022/04/18 06:45:45;;;;;;;13.40;6.78;;;;;;;4.14;59.99;94347.75;5118887;27;20118;-70
2022/04/18 06:48:11;;;;;;;9.63;5.43;;;;;;;4.15;59.68;94340.84;5113101;28;20039;-69
2022/04/18 06:50:36;;;;;;;7.03;3.50;;;;;;;3.88;58.94;94323.72;5096368;28;20445;-73
2022/04/18 06:53:02;;;;;;;11.93;6.60;;;;;;;4.01;59.49;94350.31;5112640;28;20027;-70
2022/04/18 06:56:58;;;;;;;26.38;13.30;;;;;;;4.03;61.65;94353.56;5116866;27;20044;-71
2022/04/18 06:58:13;;;;;;;12.48;7.00;;;;;;;4.08;62.82;94344.75;5133249;27;20114;-69
2022/04/18 07:00:38;;;;;;;33.20;14.82;;;;;;;4.19;61.13;94355.16;5134702;27;20042;-69
2022/04/18 07:03:04;;;;;;;32.13;14.63;;;;;;;4.19;60.54;94355.16;5134225;27;20027;-69
2022/04/18 07:05:29;;;;;;;55.03;26.38;;;;;;;4.18;60.82;94361.22;5124127;27;20026;-69
2022/04/18 07:07:54;;;;;;;36.40;17.30;;;;;;;4.18;61.02;94363.78;5101173;27;20092;-71
2022/04/18 07:10:20;;;;;;;30.38;13.48;;;;;;;4.06;61.05;94356.88;5132157;27;20393;-69
2022/04/18 07:12:45;;;;;;;13.32;7.32;;;;;;;4.01;61.53;94355.44;5131963;27;20027;-69
2022/04/18 07:15:11;;;;;;;9.48;5.85;;;;;;;4.00;62.55;94348.63;5115257;27;20040;-69
2022/04/18 07:17:36;;;;;;;39.00;14.93;;;;;;;4.06;61.25;94364.59;5122076;27;20031;-69
2022/04/18 07:20:02;;;;;;;67.53;26.92;;;;;;;4.09;61.94;94357.50;5128933;27;20303;-69
2022/04/18 07:22:27;;;;;;;34.08;13.80;;;;;;;4.09;62.09;94346.41;5130278;27;20054;-70
2022/04/18 07:24:52;;;;;;;14.32;7.35;;;;;;;4.19;61.42;94358.56;5144764;27;20027;-69
2022/04/18 07:27:18;;;;;;;7.50;4.65;;;;;;;4.07;61.33;94356.78;5143268;27;20027;-69
2022/04/18 07:29:43;;;;;;;11.23;6.55;;;;;;;4.10;62.07;94359.16;5130221;27;20039;-70
2022/04/18 07:32:09;;;;;;;11.43;5.80;;;;;;;4.12;61.79;94356.47;5125129;27;20091;-69
2022/04/18 07:34:34;;;;;;;15.35;7.00;;;;;;;4.07;61.96;94354.22;5119151;27;20031;-68
2022/04/18 07:37:00;;;;;;;36.97;16.05;;;;;;;4.09;62.02;94361.81;5130217;27;20127;-69
2022/04/18 07:39:25;;;;;;;16.23;9.48;;;;;;;4.01;61.68;94339.16;5130703;27;20031;-69
2022/04/18 07:41:50;;;;;;;22.15;15.25;;;;;;;4.13;62.33;94361.53;5114230;27;20039;-69
2022/04/18 07:44:16;;;;;;;17.00;10.60;;;;;;;4.18;63.34;94361.22;5107579;27;20042;-70
2022/04/18 07:46:42;;;;;;;8.65;6.40;;;;;;;4.18;62.10;94361.22;5107643;27;20040;-69
2022/04/18 07:49:07;;;;;;;6.68;5.00;;;;;;;4.18;61.98;94361.22;5120535;27;20037;-69
2022/04/18 07:51:36;;;;;;;5.93;4.75;;;;;;;4.25;61.54;94367.63;5111808;28;20038;-69
2022/04/18 07:54:05;;;;;;;5.95;4.30;;;;;;;4.18;61.08;94366.34;5113096;28;20030;-69
2022/04/18 07:56:31;;;;;;;5.68;3.60;;;;;;;3.97;62.01;94369.41;5124656;27;20077;-69
2022/04/18 07:58:56;;;;;;;9.52;3.95;;;;;;;3.93;62.31;94362.81;5133526;27;20031;-69
2022/04/18 08:01:22;;;;;;;5.85;3.40;;;;;;;3.93;62.92;94367.97;5133396;27;20080;-69
2022/04/18 08:03:48;;;;;;;5.82;3.97;;;;;;;4.03;62.39;94379.28;5132192;27;20031;-69
2022/04/18 08:06:13;;;;;;;7.75;5.22;;;;;;;4.06;61.89;94367.16;5114823;27;20023;-69
2022/04/18 08:08:39;;;;;;;5.65;3.78;;;;;;;4.09;62.49;94361.81;5114987;27;20095;-69
2022/04/18 08:11:04;;;;;;;4.28;3.10;;;;;;;4.12;62.06;94377.03;5131961;27;20424;-69
2022/04/18 08:13:30;;;;;;;5.47;3.50;;;;;;;4.14;62.08;94372.63;5114899;27;20408;-69
2022/04/18 08:15:55;;;;;;;4.43;3.15;;;;;;;4.13;61.94;94373.56;5131914;27;20023;-69
2022/04/18 08:18:21;;;;;;;6.15;3.47;;;;;;;4.15;61.88;94371.69;5131717;27;20030;-69
2022/04/18 08:20:46;;;;;;;7.68;4.63;;;;;;;4.18;62.08;94371.50;5114173;28;20480;-69
2022/04/18 08:23:12;;;;;;;10.52;6.03;;;;;;;4.22;61.73;94376.34;5131221;27;20038;-69
2022/04/18 08:25:37;;;;;;;19.33;8.77;;;;;;;4.19;61.80;94373.16;5131939;27;20522;-69
2022/04/18 08:28:03;;;;;;;13.85;10.32;;;;;;;4.18;61.13;94374.06;5114307;27;20072;-69
2022/04/18 08:30:28;;;;;;;5.95;5.00;;;;;;;4.13;61.66;94378.72;5131738;27;20077;-69
2022/04/18 08:32:54;;;;;;;7.40;4.25;;;;;;;4.20;62.04;94374.81;5132721;27;20026;-69
2022/04/18 08:35:20;;;;;;;5.10;3.60;;;;;;;4.19;61.53;94378.31;5131709;27;20493;-69
2022/04/18 08:37:46;;;;;;;5.15;3.05;;;;;;;4.18;61.31;94363.78;5132634;27;20122;-69
2022/04/18 08:40:11;;;;;;;4.65;2.90;;;;;;;4.23;61.63;94372.03;5133041;27;20447;-69
2022/04/18 08:42:38;;;;;;;4.28;3.30;;;;;;;4.25;63.10;94375.34;5131388;27;20035;-69
2022/04/18 08:45:10;;;;;;;4.15;2.95;;;;;;;4.24;61.77;94373.69;5131462;27;20485;-69
2022/04/18 08:53:10;;;;;;;5.22;4.43;;;;;;;4.22;62.37;94375.53;5117289;27;20058;-69
2022/04/18 08:55:36;;;;;;;5.88;4.22;;;;;;;4.29;62.22;94376.81;5114454;27;20432;-68
2022/04/18 08:58:01;;;;;;;5.90;4.32;;;;;;;4.31;63.35;94372.34;5113964;27;20024;-69
2022/04/18 09:00:27;;;;;;;6.10;4.53;;;;;;;4.34;62.04;94377.28;5131299;27;20042;-69
2022/04/18 09:02:53;;;;;;;5.18;3.80;;;;;;;4.37;61.70;94376.28;5114191;27;20035;-69
2022/04/18 09:05:18;;;;;;;3.65;2.63;;;;;;;4.36;61.52;94367.75;5096871;28;20031;-69
2022/04/18 09:07:45;;;;;;;3.78;2.33;;;;;;;4.46;61.60;94373.13;5130843;27;20038;-69
2022/04/18 09:10:11;;;;;;;3.35;2.58;;;;;;;4.52;61.76;94366.75;5114021;27;20042;-69
2022/04/18 09:12:39;;;;;;;5.18;2.63;;;;;;;4.51;61.25;94358.19;5113745;27;20019;-69
2022/04/18 09:15:07;;;;;;;3.47;2.13;;;;;;;4.56;60.48;94369.00;5113928;27;20035;-69
2022/04/18 09:17:33;;;;;;;3.17;1.85;;;;;;;4.53;59.96;94371.78;5130698;27;20030;-69
2022/04/18 09:20:05;;;;;;;2.90;1.80;;;;;;;4.53;59.23;94373.53;5130964;27;20039;-69
2022/04/18 09:22:31;;;;;;;6.80;6.10;;;;;;;4.48;60.06;94372.09;5131972;27;20022;-69
2022/04/18 09:24:56;;;;;;;10.32;9.23;;;;;;;4.52;59.59;94375.28;5113754;27;20039;-69
2022/04/18 09:27:29;;;;;;;10.77;8.50;;;;;;;4.55;60.52;94366.53;5113412;27;20034;-69
2022/04/18 09:30:11;;;;;;;6.32;4.90;;;;;;;4.60;60.03;94367.06;5114269;27;20038;-69
2022/04/18 09:32:40;;;;;;;9.20;4.65;;;;;;;4.64;59.99;94368.50;5130200;27;20031;-69
2022/04/18 09:35:06;;;;;;;4.00;2.60;;;;;;;4.69;61.35;94363.88;5130782;27;20038;-69
2022/04/18 09:53:26;;;;;;;3.65;2.70;;;;;;;5.41;57.88;94360.72;5183560;27;20352;-68
2022/04/18 09:55:53;;;;;;;2.55;1.90;;;;;;;5.28;56.71;94348.66;5149750;27;20518;-68
2022/04/18 09:58:19;;;;;;;2.78;1.75;;;;;;;5.32;57.60;94349.28;5148444;27;20436;-68
2022/04/18 10:00:45;;;;;;;7.47;3.80;;;;;;;5.28;58.01;94342.69;5149417;27;20038;-68
2022/04/18 10:03:10;;;;;;;3.47;2.50;;;;;;;5.30;57.99;94349.41;5131125;27;20483;-68
2022/04/18 10:05:35;;;;;;;4.00;3.13;;;;;;;5.26;57.48;94350.53;5149568;27;20026;-68
2022/04/18 10:08:03;;;;;;;3.55;2.40;;;;;;;5.30;57.14;94346.81;5148513;27;20084;-68
2022/04/18 10:10:32;;;;;;;3.25;2.30;;;;;;;5.34;57.77;94344.84;5148242;27;20042;-68
2022/04/18 10:12:58;;;;;;;2.90;2.20;;;;;;;5.43;57.84;94341.63;5131036;27;20414;-68
2022/04/18 10:15:23;;;;;;;8.80;4.07;;;;;;;5.47;58.21;94345.63;5148064;27;20027;-68
2022/04/18 10:17:49;;;;;;;5.95;4.30;;;;;;;5.53;58.11;94341.81;5131106;27;20476;-68
2022/04/18 10:20:33;;;;;;;6.70;4.53;;;;;;;5.53;56.58;94339.22;5130882;27;20023;-68
2022/04/18 10:23:16;;;;;;;8.23;7.15;;;;;;;5.55;56.50;94337.38;5149158;27;20511;-68
2022/04/18 10:25:53;;;;;;;5.82;2.97;;;;;;;5.55;56.83;94339.97;5130649;27;20023;-68
2022/04/18 10:28:19;;;;;;;5.25;2.53;;;;;;;5.62;57.59;94330.84;5147951;27;20110;-68
2022/04/18 10:30:47;;;;;;;2.75;1.83;;;;;;;5.70;56.94;94331.13;5130702;27;20035;-68
2022/04/18 10:33:13;;;;;;;2.60;1.65;;;;;;;5.76;56.35;94333.25;5147766;27;20041;-68
2022/04/18 10:35:54;;;;;;;2.28;1.60;;;;;;;5.88;56.20;94331.56;5130466;27;20031;-68
2022/04/18 10:38:24;;;;;;;4.22;1.70;;;;;;;5.85;55.22;94328.38;5130431;27;20091;-68
2022/04/18 10:40:50;;;;;;;2.50;1.73;;;;;;;5.90;55.41;94340.00;5147601;27;20514;-68
2022/04/18 10:43:15;;;;;;;9.20;3.53;;;;;;;5.91;54.83;94327.97;5148961;27;20030;-68
2022/04/18 10:45:41;;;;;;;5.82;4.00;;;;;;;5.93;54.12;94336.38;5130594;27;20502;-68
2022/04/18 10:48:08;;;;;;;8.07;5.15;;;;;;;5.89;55.33;94329.81;5147510;27;20020;-67
2022/04/18 10:50:33;;;;;;;3.55;2.60;;;;;;;5.94;54.81;94331.16;5148582;27;20031;-68
2022/04/18 10:53:24;;;;;;;3.05;1.67;;;;;;;5.91;53.38;94326.19;5140769;27;20401;-68
2022/04/18 10:55:52;;;;;;;2.33;1.40;;;;;;;5.82;52.66;94319.09;5133697;27;20039;-68
2022/04/18 10:58:21;;;;;;;2.10;1.15;;;;;;;5.82;53.12;94319.94;5134806;27;20023;-67
2022/04/18 11:00:56;;;;;;;2.17;1.00;;;;;;;5.83;53.66;94311.28;5133403;27;20034;-68
2022/04/18 11:03:57;;;;;;;1.20;0.80;;;;;;;5.84;52.80;94314.66;5134707;27;20023;-68
2022/04/18 11:06:25;;;;;;;1.73;0.93;;;;;;;5.88;52.91;94315.25;5133300;27;20503;-68
2022/04/18 11:09:02;;;;;;;2.63;1.73;;;;;;;5.87;53.44;94308.47;5134541;27;20103;-68
2022/04/18 11:12:01;;;;;;;1.90;1.20;;;;;;;5.89;52.91;94301.47;5116454;27;20473;-68
2022/04/18 11:14:31;;;;;;;2.42;1.50;;;;;;;5.92;53.42;94307.22;5126647;27;20045;-68
2022/04/18 11:17:01;;;;;;;5.47;1.58;;;;;;;5.97;54.27;94301.75;5116371;27;20118;-68
2022/04/18 11:19:37;;;;;;;2.33;1.50;;;;;;;5.97;53.73;94294.84;5116104;27;20027;-67
2022/04/18 11:22:14;;;;;;;3.22;1.52;;;;;;;5.99;53.99;94303.28;5117017;27;20127;-68
2022/04/18 11:24:51;;;;;;;2.50;1.63;;;;;;;6.08;54.49;94306.94;5134253;27;20027;-68
2022/04/18 11:27:30;;;;;;;3.33;1.83;;;;;;;6.12;54.51;94300.63;5134543;27;20114;-68
2022/04/18 11:30:05;;;;;;;3.92;2.33;;;;;;;6.19;54.04;94308.75;5115958;27;20027;-68
2022/04/18 11:32:35;;;;;;;5.90;2.15;;;;;;;6.13;53.26;94296.28;5134502;27;20124;-68
2022/04/18 11:35:01;;;;;;;5.90;3.33;;;;;;;6.18;53.46;94291.59;5132855;27;20479;-68
2022/04/18 11:37:45;;;;;;;3.42;1.80;;;;;;;6.33;53.63;94298.22;5115764;27;20030;-68
2022/04/18 11:40:15;;;;;;;3.58;1.80;;;;;;;6.39;53.49;94294.38;5134028;27;20054;-68
2022/04/18 11:42:41;;;;;;;4.85;2.30;;;;;;;6.44;53.28;94292.28;5132754;27;20023;-67
2022/04/18 11:45:08;;;;;;;2.63;2.00;;;;;;;6.53;53.63;94294.16;5133889;27;20095;-68
2022/04/18 11:47:38;;;;;;;5.43;2.13;;;;;;;6.56;52.54;94296.50;5134242;27;20407;-68
2022/04/18 11:50:04;;;;;;;4.57;3.88;;;;;;;6.54;52.83;94293.22;5132890;27;20019;-68
2022/04/18 11:52:31;;;;;;;3.28;2.58;;;;;;;6.57;51.80;94292.97;5132421;27;20055;-68
2022/04/18 11:55:17;;;;;;;4.68;4.13;;;;;;;6.64;53.11;94293.34;5132327;27;20026;-68
2022/04/18 11:57:46;;;;;;;7.93;6.00;;;;;;;6.67;52.77;94299.09;5100002;27;20570;-68
2022/04/18 12:00:13;;;;;;;5.68;3.63;;;;;;;6.71;51.44;94295.38;5133575;27;20030;-68
2022/04/18 12:08:09;;;;;;;6.18;4.13;;;;;;;6.70;51.29;94283.38;5117907;27;20429;-68
2022/04/18 12:10:37;;;;;;;3.08;2.15;;;;;;;6.75;50.88;94287.38;5115163;27;20532;-68
2022/04/18 12:13:07;;;;;;;4.20;2.47;;;;;;;6.72;51.72;94275.53;5114852;27;20052;-68